createdAt,value
2022-11-25T00:00:41.631Z,1.47
2022-11-25T00:01:45.755Z,1.80
2022-11-25T00:02:47.584Z,1.87
2022-11-25T00:03:51.384Z,1.37
2022-11-25T00:04:53.195Z,1.70
2022-11-25T00:05:55.925Z,1.30
2022-11-25T00:06:58.648Z,1.60
2022-11-25T00:08:00.314Z,1.37
2022-11-25T00:09:07.818Z,1.37
2022-11-25T00:10:09.935Z,1.20
2022-11-25T00:11:13.852Z,1.47
2022-11-25T00:12:16.725Z,1.17
2022-11-25T00:13:18.500Z,1.73
2022-11-25T00:14:21.428Z,1.50
2022-11-25T00:15:23.107Z,1.30
2022-11-25T00:16:27.451Z,1.33
2022-11-25T00:17:30.615Z,1.30
2022-11-25T00:18:33.707Z,1.53
2022-11-25T00:19:35.457Z,1.17
2022-11-25T00:20:38.658Z,1.40
2022-11-25T00:21:40.402Z,1.10
2022-11-25T00:22:46.298Z,1.40
2022-11-25T00:23:51.069Z,1.40
2022-11-25T00:24:53.840Z,1.60
2022-11-25T00:25:55.476Z,1.20
2022-11-25T00:26:58.199Z,1.20
2022-11-25T00:27:59.862Z,1.27
2022-11-25T00:29:05.032Z,1.50
2022-11-25T00:30:08.433Z,1.30
2022-11-25T00:31:13.107Z,1.40
2022-11-25T00:32:14.829Z,1.50
2022-11-25T00:33:18.997Z,1.47
2022-11-25T00:34:20.715Z,1.20
2022-11-25T00:35:23.408Z,1.87
2022-11-25T00:36:28.060Z,1.60
2022-11-25T00:37:30.782Z,1.27
2022-11-25T00:38:32.523Z,1.90
2022-11-25T00:39:35.325Z,2.23
2022-11-25T00:40:37.095Z,1.90
2022-11-25T00:41:57.601Z,1.50
2022-11-25T00:43:17.871Z,1.63
2022-11-25T00:44:37.461Z,1.50
2022-11-25T00:45:41.235Z,1.70
2022-11-25T00:46:43.063Z,1.63
2022-11-25T00:47:45.764Z,1.67
2022-11-25T00:48:49.072Z,1.60
2022-11-25T00:49:53.376Z,1.90
2022-11-25T00:50:55.133Z,2.07
2022-11-25T00:51:57.844Z,1.87
2022-11-25T00:52:59.521Z,1.70
2022-11-25T00:54:02.516Z,1.80
2022-11-25T00:55:05.047Z,1.67
2022-11-25T00:56:17.166Z,1.90
2022-11-25T00:57:20.018Z,1.77
2022-11-25T00:58:22.734Z,1.90
2022-11-25T00:59:24.438Z,1.60
2022-11-25T01:00:27.148Z,1.70
2022-11-25T01:01:29.103Z,1.60
2022-11-25T01:02:31.981Z,1.50
2022-11-25T01:03:34.948Z,1.53
2022-11-25T01:04:39.425Z,1.60
2022-11-25T01:05:41.113Z,1.50
2022-11-25T01:06:43.999Z,1.47
2022-11-25T01:07:46.487Z,1.10
2022-11-25T01:08:49.527Z,1.10
2022-11-25T01:09:52.357Z,1.33
2022-11-25T01:10:58.884Z,1.10
2022-11-25T01:12:01.584Z,1.30
2022-11-25T01:13:03.278Z,1.50
2022-11-25T01:14:06.320Z,1.20
2022-11-25T01:15:09.713Z,1.30
2022-11-25T01:16:15.645Z,1.70
2022-11-25T01:17:18.384Z,1.10
2022-11-25T01:18:20.108Z,1.57
2022-11-25T01:19:22.850Z,1.20
2022-11-25T01:20:26.114Z,1.30
2022-11-25T01:21:30.359Z,1.07
2022-11-25T01:22:32.096Z,1.57
2022-11-25T01:23:35.151Z,1.53
2022-11-25T01:24:38.129Z,1.20
2022-11-25T01:25:40.625Z,1.13
2022-11-25T01:26:43.870Z,1.13
2022-11-25T01:27:45.577Z,1.10
2022-11-25T01:28:48.815Z,1.50
2022-11-25T01:29:51.500Z,1.10
2022-11-25T01:31:00.110Z,1.30
2022-11-25T01:32:03.284Z,1.57
2022-11-25T01:33:04.997Z,1.83
2022-11-25T01:34:09.897Z,1.17
2022-11-25T01:35:11.706Z,1.10
2022-11-25T01:36:17.087Z,1.40
2022-11-25T01:37:18.786Z,1.53
2022-11-25T01:38:21.661Z,1.47
2022-11-25T01:39:30.462Z,1.17
2022-11-25T01:40:34.119Z,1.30
2022-11-25T01:41:37.155Z,1.03
2022-11-25T01:42:42.676Z,1.40
2022-11-25T01:43:45.416Z,1.10
2022-11-25T01:45:20.280Z,1.30
2022-11-25T01:46:26.842Z,1.20
2022-11-25T01:47:29.618Z,1.13
2022-11-25T01:48:38.048Z,0.97
2022-11-25T01:49:42.975Z,1.17
2022-11-25T01:50:46.013Z,1.17
2022-11-25T01:51:53.100Z,1.27
2022-11-25T01:52:55.756Z,1.17
2022-11-25T01:54:01.272Z,1.10
2022-11-25T01:55:08.033Z,1.20
2022-11-25T01:56:10.732Z,1.07
2022-11-25T01:57:16.935Z,1.23
2022-11-25T01:58:22.497Z,1.10
2022-11-25T01:59:25.008Z,1.20
2022-11-25T02:00:27.942Z,1.10
2022-11-25T02:01:29.834Z,1.43
2022-11-25T02:02:32.993Z,1.10
2022-11-25T02:03:38.351Z,1.10
2022-11-25T02:04:41.398Z,1.07
2022-11-25T02:05:58.757Z,1.63
2022-11-25T02:07:06.425Z,0.90
2022-11-25T02:08:08.506Z,0.97
2022-11-25T02:09:11.354Z,1.03
2022-11-25T02:10:16.152Z,1.10
2022-11-25T02:11:19.674Z,1.50
2022-11-25T02:12:22.246Z,1.30
2022-11-25T02:13:25.485Z,1.20
2022-11-25T02:14:27.283Z,1.40
2022-11-25T02:15:30.726Z,1.23
2022-11-25T02:16:32.534Z,1.37
2022-11-25T02:17:35.471Z,1.10
2022-11-25T02:18:37.410Z,1.30
2022-11-25T02:19:51.403Z,1.10
2022-11-25T02:20:53.707Z,1.53
2022-11-25T02:22:01.653Z,1.20
2022-11-25T02:23:10.707Z,1.47
2022-11-25T02:24:16.721Z,1.40
2022-11-25T02:25:22.024Z,1.43
2022-11-25T02:26:23.822Z,1.13
2022-11-25T02:27:26.486Z,1.50
2022-11-25T02:28:29.744Z,1.20
2022-11-25T02:29:34.061Z,1.30
2022-11-25T02:30:36.452Z,1.30
2022-11-25T02:31:39.195Z,1.40
2022-11-25T02:32:43.672Z,1.20
2022-11-25T02:33:46.419Z,1.90
2022-11-25T02:34:48.878Z,1.53
2022-11-25T02:35:54.283Z,1.50
2022-11-25T02:36:56.826Z,1.40
2022-11-25T02:38:04.440Z,1.67
2022-11-25T02:39:07.369Z,1.50
2022-11-25T02:40:11.411Z,1.80
2022-11-25T02:41:18.011Z,1.90
2022-11-25T02:42:20.815Z,1.77
2022-11-25T02:43:23.573Z,1.70
2022-11-25T02:44:25.300Z,2.03
2022-11-25T02:45:35.087Z,1.97
2022-11-25T02:46:36.923Z,1.50
2022-11-25T02:47:39.588Z,1.83
2022-11-25T02:50:05.941Z,1.30
2022-11-25T02:51:09.426Z,1.77
2022-11-25T02:52:12.306Z,1.83
2022-11-25T02:53:14.135Z,1.13
2022-11-25T02:54:17.268Z,1.00
2022-11-25T02:55:18.952Z,1.20
2022-11-25T02:56:24.613Z,1.17
2022-11-25T02:57:26.450Z,1.00
2022-11-25T02:58:29.525Z,1.43
2022-11-25T02:59:31.366Z,1.30
2022-11-25T03:00:34.189Z,1.10
2022-11-25T03:01:36.459Z,1.33
2022-11-25T03:02:39.770Z,1.13
2022-11-25T03:03:41.566Z,1.40
2022-11-25T03:04:44.801Z,1.13
2022-11-25T03:05:46.482Z,1.00
2022-11-25T03:06:49.179Z,1.00
2022-11-25T03:07:51.073Z,1.40
2022-11-25T03:08:54.582Z,1.80
2022-11-25T03:09:56.242Z,1.23
2022-11-25T03:10:59.099Z,1.47
2022-11-25T03:12:20.272Z,1.30
2022-11-25T03:13:23.355Z,1.53
2022-11-25T03:14:25.096Z,1.20
2022-11-25T03:15:27.875Z,2.00
2022-11-25T03:16:29.855Z,1.30
2022-11-25T03:17:33.242Z,1.20
2022-11-25T03:18:34.963Z,1.30
2022-11-25T03:19:37.747Z,1.27
2022-11-25T03:20:39.552Z,1.60
2022-11-25T03:21:42.328Z,1.77
2022-11-25T03:22:44.364Z,1.37
2022-11-25T03:23:47.023Z,1.40
2022-11-25T03:24:48.968Z,1.50
2022-11-25T03:25:51.699Z,1.60
2022-11-25T03:26:53.429Z,1.70
2022-11-25T03:27:57.628Z,1.67
2022-11-25T03:28:59.317Z,1.83
2022-11-25T03:30:02.398Z,1.70
2022-11-25T03:31:04.104Z,1.37
2022-11-25T03:32:09.685Z,1.40
2022-11-25T03:33:11.915Z,1.63
2022-11-25T03:34:14.714Z,1.00
2022-11-25T03:35:17.242Z,1.30
2022-11-25T03:36:20.803Z,1.37
2022-11-25T03:37:22.679Z,1.40
2022-11-25T03:38:25.497Z,1.50
2022-11-25T03:39:27.205Z,1.13
2022-11-25T03:40:29.953Z,1.40
2022-11-25T03:41:31.646Z,1.03
2022-11-25T03:42:34.539Z,1.70
2022-11-25T03:43:38.555Z,1.43
2022-11-25T03:44:40.322Z,1.30
2022-11-25T03:45:43.080Z,1.17
2022-11-25T03:46:44.946Z,1.53
2022-11-25T03:47:47.700Z,1.20
2022-11-25T03:48:49.396Z,1.50
2022-11-25T03:49:52.127Z,1.40
2022-11-25T03:50:53.824Z,1.77
2022-11-25T03:51:56.679Z,1.50
2022-11-25T03:52:58.378Z,1.50
2022-11-25T03:54:01.038Z,1.50
2022-11-25T03:55:03.014Z,1.50
2022-11-25T03:56:06.264Z,1.13
2022-11-25T03:57:08.177Z,1.53
2022-11-25T03:58:10.917Z,1.23
2022-11-25T03:59:14.025Z,1.40
2022-11-25T04:00:16.973Z,1.50
2022-11-25T04:01:18.702Z,1.17
2022-11-25T04:02:21.444Z,1.03
2022-11-25T04:03:23.414Z,1.23
2022-11-25T04:04:26.221Z,1.27
2022-11-25T04:05:30.747Z,1.13
2022-11-25T04:06:33.678Z,1.40
2022-11-25T04:07:35.436Z,1.10
2022-11-25T04:08:38.193Z,1.27
2022-11-25T04:09:39.903Z,1.07
2022-11-25T04:10:42.663Z,1.37
2022-11-25T04:12:02.915Z,0.90
2022-11-25T04:13:04.766Z,1.33
2022-11-25T04:14:06.450Z,1.20
2022-11-25T04:15:11.234Z,1.30
2022-11-25T04:16:21.515Z,1.73
2022-11-25T04:17:23.279Z,1.20
2022-11-25T04:18:26.089Z,1.40
2022-11-25T04:19:27.790Z,1.20
2022-11-25T04:20:30.568Z,1.30
2022-11-25T04:21:32.358Z,1.23
2022-11-25T04:22:35.137Z,1.17
2022-11-25T04:23:36.956Z,1.33
2022-11-25T04:24:39.648Z,1.20
2022-11-25T04:25:41.388Z,1.30
2022-11-25T04:26:44.155Z,1.50
2022-11-25T04:27:45.871Z,1.70
2022-11-25T04:28:48.664Z,1.67
2022-11-25T04:29:50.379Z,1.50
2022-11-25T04:30:54.397Z,1.40
2022-11-25T04:31:56.201Z,1.13
2022-11-25T04:32:58.924Z,1.20
2022-11-25T04:34:00.735Z,1.37
2022-11-25T04:35:03.546Z,1.30
2022-11-25T04:36:05.806Z,1.30
2022-11-25T04:37:08.583Z,1.10
2022-11-25T04:38:10.301Z,1.20
2022-11-25T04:39:13.041Z,1.07
2022-11-25T04:40:15.388Z,1.67
2022-11-25T04:41:18.167Z,1.20
2022-11-25T04:42:32.053Z,1.23
2022-11-25T04:43:34.787Z,1.30
2022-11-25T04:44:36.896Z,1.50
2022-11-25T04:46:06.348Z,1.20
2022-11-25T04:47:02.908Z,1.20
2022-11-25T04:48:06.440Z,1.33
2022-11-25T04:49:08.373Z,1.13
2022-11-25T04:50:15.445Z,1.10
2022-11-25T04:51:17.183Z,1.37
2022-11-25T04:52:20.044Z,1.23
2022-11-25T04:53:21.859Z,1.20
2022-11-25T04:54:24.612Z,1.33
2022-11-25T04:55:26.303Z,1.20
2022-11-25T04:56:28.957Z,1.40
2022-11-25T04:57:31.058Z,1.33
2022-11-25T04:58:51.208Z,1.27
2022-11-25T04:59:53.883Z,1.30
2022-11-25T05:00:55.589Z,1.20
2022-11-25T05:01:57.604Z,1.27
2022-11-25T05:03:01.765Z,1.33
2022-11-25T05:04:03.649Z,1.60
2022-11-25T05:05:07.429Z,1.57
2022-11-25T05:06:09.991Z,1.50
2022-11-25T05:07:13.106Z,1.63
2022-11-25T05:08:16.052Z,1.73
2022-11-25T05:09:18.288Z,1.40
2022-11-25T05:10:21.256Z,1.60
2022-11-25T05:11:23.060Z,1.20
2022-11-25T05:12:27.310Z,1.50
2022-11-25T05:13:28.990Z,1.60
2022-11-25T05:14:31.898Z,1.23
2022-11-25T05:15:33.658Z,1.40
2022-11-25T05:16:36.460Z,1.40
2022-11-25T05:17:38.310Z,1.40
2022-11-25T05:18:42.439Z,1.63
2022-11-25T05:19:45.968Z,1.67
2022-11-25T05:20:48.642Z,1.50
2022-11-25T05:21:50.406Z,1.20
2022-11-25T05:22:53.188Z,1.20
2022-11-25T05:23:56.141Z,1.10
2022-11-25T05:24:59.465Z,1.37
2022-11-25T05:26:01.673Z,1.40
2022-11-25T05:27:04.468Z,1.30
2022-11-25T05:28:06.164Z,1.30
2022-11-25T05:29:08.974Z,1.50
2022-11-25T05:30:11.444Z,1.30
2022-11-25T05:31:14.254Z,1.17
2022-11-25T05:32:16.029Z,1.73
2022-11-25T05:33:18.711Z,1.37
2022-11-25T05:34:25.283Z,1.25
2022-11-25T05:35:28.027Z,1.13
2022-11-25T05:36:29.703Z,1.60
2022-11-25T05:37:32.370Z,1.60
2022-11-25T05:38:34.055Z,1.47
2022-11-25T05:39:36.872Z,1.33
2022-11-25T05:40:38.549Z,1.10
2022-11-25T05:41:41.354Z,1.17
2022-11-25T05:42:43.162Z,1.30
2022-11-25T05:43:47.122Z,1.50
2022-11-25T05:44:49.838Z,1.40
2022-11-25T05:45:51.623Z,1.17
2022-11-25T05:46:54.473Z,1.50
2022-11-25T05:47:56.166Z,1.30
2022-11-25T05:49:00.504Z,1.30
2022-11-25T05:50:03.889Z,1.37
2022-11-25T05:51:06.914Z,1.33
2022-11-25T05:52:08.647Z,1.50
2022-11-25T05:53:11.477Z,1.23
2022-11-25T05:54:14.847Z,1.27
2022-11-25T05:55:16.597Z,1.20
2022-11-25T05:56:19.283Z,1.37
2022-11-25T05:57:20.991Z,1.30
2022-11-25T05:58:24.036Z,1.10
2022-11-25T05:59:25.820Z,1.65
2022-11-25T06:00:28.549Z,1.60
2022-11-25T06:01:30.232Z,1.37
2022-11-25T06:02:33.137Z,1.13
2022-11-25T06:03:35.629Z,1.30
2022-11-25T06:04:38.937Z,1.75
2022-11-25T06:05:42.146Z,1.73
2022-11-25T06:06:44.890Z,1.85
2022-11-25T06:07:46.628Z,2.10
2022-11-25T06:08:49.379Z,1.67
2022-11-25T06:09:52.218Z,2.20
2022-11-25T06:10:54.363Z,2.03
2022-11-25T06:11:57.085Z,1.70
2022-11-25T06:12:58.890Z,2.03
2022-11-25T06:14:01.911Z,1.80
2022-11-25T06:15:05.168Z,1.83
2022-11-25T06:16:09.515Z,1.50
2022-11-25T06:17:11.440Z,2.03
2022-11-25T06:18:16.085Z,1.92
2022-11-25T06:19:17.815Z,1.75
2022-11-25T06:20:20.495Z,1.73
2022-11-25T06:21:23.599Z,2.00
2022-11-25T06:22:26.372Z,1.90
2022-11-25T06:23:28.116Z,2.33
2022-11-25T06:24:31.361Z,1.37
2022-11-25T06:25:33.751Z,1.80
2022-11-25T06:26:36.531Z,2.15
2022-11-25T06:28:04.571Z,1.70
2022-11-25T06:29:00.916Z,1.67
2022-11-25T06:30:02.651Z,1.80
2022-11-25T06:31:07.559Z,1.90
2022-11-25T06:32:10.028Z,1.65
2022-11-25T06:33:12.823Z,1.53
2022-11-25T06:34:15.944Z,1.80
2022-11-25T06:35:17.921Z,1.80
2022-11-25T06:36:21.743Z,1.80
2022-11-25T06:37:25.425Z,1.65
2022-11-25T06:38:28.142Z,1.45
2022-11-25T06:39:29.775Z,1.48
2022-11-25T06:40:33.422Z,1.73
2022-11-25T06:41:36.105Z,1.88
2022-11-25T06:42:38.727Z,1.67
2022-11-25T06:43:41.712Z,1.38
2022-11-25T06:44:43.390Z,1.80
2022-11-25T06:45:46.314Z,1.73
2022-11-25T06:46:47.984Z,1.48
2022-11-25T06:47:50.918Z,2.00
2022-11-25T06:48:52.941Z,1.50
2022-11-25T06:49:55.635Z,1.70
2022-11-25T06:50:58.367Z,1.75
2022-11-25T06:52:01.083Z,1.70
2022-11-25T06:53:04.175Z,1.70
2022-11-25T06:54:08.531Z,1.63
2022-11-25T06:55:10.378Z,1.70
2022-11-25T06:56:15.270Z,1.60
2022-11-25T06:57:18.518Z,1.75
2022-11-25T06:58:35.499Z,1.88
2022-11-25T06:59:39.144Z,1.40
2022-11-25T07:00:41.276Z,1.57
2022-11-25T07:01:44.025Z,1.55
2022-11-25T07:02:48.694Z,1.40
2022-11-25T07:03:53.848Z,1.53
2022-11-25T07:04:55.542Z,1.40
2022-11-25T07:05:58.868Z,2.15
2022-11-25T07:07:00.642Z,1.23
2022-11-25T07:08:03.338Z,1.73
2022-11-25T07:09:08.016Z,1.95
2022-11-25T07:10:11.248Z,1.70
2022-11-25T07:11:15.939Z,1.65
2022-11-25T07:12:18.671Z,1.92
2022-11-25T07:13:20.676Z,1.70
2022-11-25T07:14:23.405Z,2.10
2022-11-25T07:15:25.167Z,2.00
2022-11-25T07:16:28.213Z,2.10
2022-11-25T07:17:31.132Z,1.48
2022-11-25T07:18:33.791Z,1.63
2022-11-25T07:19:36.518Z,2.50
2022-11-25T07:20:38.414Z,1.30
2022-11-25T07:21:41.221Z,1.83
2022-11-25T07:22:42.887Z,1.60
2022-11-25T07:23:46.833Z,1.40
2022-11-25T07:24:49.892Z,2.08
2022-11-25T07:25:52.733Z,1.73
2022-11-25T07:26:54.772Z,2.22
2022-11-25T07:27:57.422Z,1.85
2022-11-25T07:29:00.615Z,1.85
2022-11-25T07:30:54.378Z,1.83
2022-11-25T07:31:31.108Z,1.95
2022-11-25T07:32:35.046Z,1.67
2022-11-25T07:33:37.431Z,1.90
2022-11-25T07:34:40.181Z,2.60
2022-11-25T07:35:42.922Z,2.00
2022-11-25T07:36:45.642Z,2.15
2022-11-25T07:37:47.450Z,2.08
2022-11-25T07:38:50.154Z,1.95
2022-11-25T07:39:54.283Z,2.15
2022-11-25T07:40:55.985Z,2.00
2022-11-25T07:41:58.783Z,2.00
2022-11-25T07:43:00.578Z,2.50
2022-11-25T07:44:05.259Z,1.92
2022-11-25T07:45:08.879Z,2.08
2022-11-25T07:46:12.062Z,2.72
2022-11-25T07:47:14.843Z,1.98
2022-11-25T07:48:16.591Z,2.08
2022-11-25T07:49:20.870Z,1.40
2022-11-25T07:50:22.526Z,1.83
2022-11-25T07:51:27.325Z,1.70
2022-11-25T07:52:30.036Z,1.50
2022-11-25T07:53:32.006Z,1.70
2022-11-25T07:54:35.093Z,1.48
2022-11-25T07:55:39.107Z,2.35
2022-11-25T07:56:43.164Z,2.30
2022-11-25T07:57:45.133Z,2.50
2022-11-25T07:58:47.900Z,2.80
2022-11-25T07:59:49.555Z,2.53
2022-11-25T08:00:52.270Z,1.83
2022-11-25T08:01:56.171Z,2.15
2022-11-25T08:02:59.603Z,2.25
2022-11-25T08:04:02.726Z,2.05
2022-11-25T08:05:05.009Z,2.08
2022-11-25T08:06:09.758Z,1.70
2022-11-25T08:07:12.926Z,1.90
2022-11-25T08:08:14.665Z,2.15
2022-11-25T08:09:19.841Z,1.90
2022-11-25T08:10:22.691Z,1.80
2022-11-25T08:11:28.416Z,1.95
2022-11-25T08:12:33.163Z,1.80
2022-11-25T08:13:34.943Z,1.88
2022-11-25T08:14:37.886Z,2.15
2022-11-25T08:15:40.618Z,2.03
2022-11-25T08:16:43.365Z,1.80
2022-11-25T08:17:46.102Z,1.80
2022-11-25T08:18:48.067Z,1.80
2022-11-25T08:19:50.742Z,1.98
2022-11-25T08:20:52.444Z,1.90
2022-11-25T08:21:55.613Z,2.53
2022-11-25T08:22:57.327Z,2.08
2022-11-25T08:24:02.867Z,2.35
2022-11-25T08:25:06.126Z,2.60
2022-11-25T08:26:09.406Z,2.28
2022-11-25T08:27:13.431Z,2.30
2022-11-25T08:28:15.656Z,2.08
2022-11-25T08:29:20.063Z,2.63
2022-11-25T08:30:24.637Z,2.13
2022-11-25T08:31:29.299Z,2.30
2022-11-25T08:32:32.072Z,2.08
2022-11-25T08:33:33.953Z,2.20
2022-11-25T08:34:38.965Z,2.42
2022-11-25T08:35:41.641Z,2.17
2022-11-25T08:36:48.006Z,2.05
2022-11-25T08:37:53.800Z,2.40
2022-11-25T08:39:00.044Z,2.35
2022-11-25T08:40:03.133Z,2.25
2022-11-25T08:41:09.855Z,2.30
2022-11-25T08:42:13.915Z,2.35
2022-11-25T08:43:15.730Z,2.90
2022-11-25T08:44:18.459Z,2.10
2022-11-25T08:45:20.335Z,2.20
2022-11-25T08:46:25.288Z,2.53
2022-11-25T08:47:28.042Z,2.25
2022-11-25T08:48:30.952Z,2.60
2022-11-25T08:49:37.530Z,2.45
2022-11-25T08:50:47.640Z,2.85
2022-11-25T08:51:50.572Z,2.80
2022-11-25T08:52:53.385Z,2.63
2022-11-25T08:53:56.363Z,2.55
2022-11-25T08:54:59.646Z,2.50
2022-11-25T08:56:02.518Z,2.53
2022-11-25T08:57:05.771Z,2.67
2022-11-25T08:58:12.416Z,2.65
2022-11-25T08:59:15.135Z,2.17
2022-11-25T09:00:18.754Z,2.22
2022-11-25T09:01:22.244Z,2.60
2022-11-25T09:02:24.903Z,2.45
2022-11-25T09:03:27.978Z,2.45
2022-11-25T09:04:30.850Z,2.83
2022-11-25T09:05:36.007Z,3.13
2022-11-25T09:06:38.820Z,2.88
2022-11-25T09:07:41.792Z,2.20
2022-11-25T09:08:44.069Z,2.50
2022-11-25T09:09:46.792Z,2.92
2022-11-25T09:10:48.571Z,2.95
2022-11-25T09:11:51.336Z,1.85
2022-11-25T09:12:55.866Z,1.98
2022-11-25T09:14:00.372Z,1.92
2022-11-25T09:15:02.226Z,1.90
2022-11-25T09:16:05.634Z,1.60
2022-11-25T09:17:10.304Z,1.55
2022-11-25T09:18:12.991Z,1.70
2022-11-25T09:19:15.740Z,1.33
2022-11-25T09:20:18.578Z,1.50
2022-11-25T09:21:21.375Z,1.40
2022-11-25T09:22:23.275Z,1.60
2022-11-25T09:23:26.711Z,1.40
2022-11-25T09:24:29.472Z,1.58
2022-11-25T09:25:31.349Z,1.90
2022-11-25T09:26:35.828Z,1.65
2022-11-25T09:27:38.785Z,1.50
2022-11-25T09:28:40.490Z,1.70
2022-11-25T09:29:44.528Z,1.80
2022-11-25T09:30:47.563Z,1.33
2022-11-25T09:31:54.673Z,1.63
2022-11-25T09:32:57.960Z,1.45
2022-11-25T09:34:02.132Z,1.88
2022-11-25T09:35:08.037Z,1.77
2022-11-25T09:36:10.816Z,1.67
2022-11-25T09:37:13.505Z,1.45
2022-11-25T09:38:15.188Z,1.55
2022-11-25T09:39:17.922Z,1.67
2022-11-25T09:40:22.511Z,1.48
2022-11-25T09:41:55.343Z,1.73
2022-11-25T09:43:18.274Z,1.70
2022-11-25T09:44:47.196Z,2.38
2022-11-25T09:46:15.421Z,1.88
2022-11-25T09:47:22.218Z,2.10
2022-11-25T09:48:37.366Z,2.10
2022-11-25T09:49:52.158Z,2.55
2022-11-25T09:50:59.406Z,2.10
2022-11-25T09:52:10.233Z,2.10
2022-11-25T09:53:20.559Z,2.00
2022-11-25T09:54:26.734Z,1.45
2022-11-25T09:55:31.494Z,1.95
2022-11-25T09:56:37.209Z,1.73
2022-11-25T09:57:53.925Z,1.98
2022-11-25T09:59:04.099Z,2.08
2022-11-25T10:00:07.269Z,2.20
2022-11-25T10:01:15.909Z,1.70
2022-11-25T10:02:22.749Z,2.00
2022-11-25T10:03:33.772Z,2.05
2022-11-25T10:04:41.723Z,1.92
2022-11-25T10:05:47.270Z,2.03
2022-11-25T10:06:55.584Z,1.90
2022-11-25T10:08:01.923Z,1.85
2022-11-25T10:09:11.858Z,2.00
2022-11-25T10:10:19.952Z,2.35
2022-11-25T10:11:29.256Z,2.22
2022-11-25T10:12:34.227Z,2.10
2022-11-25T10:13:46.158Z,2.08
2022-11-25T10:14:51.265Z,2.20
2022-11-25T10:15:54.837Z,2.05
2022-11-25T10:17:05.120Z,2.03
2022-11-25T10:18:15.072Z,2.20
2022-11-25T10:19:26.035Z,2.40
2022-11-25T10:20:31.325Z,2.45
2022-11-25T10:21:33.016Z,2.70
2022-11-25T10:22:37.442Z,2.20
2022-11-25T10:23:40.819Z,2.00
2022-11-25T10:24:43.125Z,2.13
2022-11-25T10:25:48.335Z,2.22
2022-11-25T10:26:55.872Z,2.28
2022-11-25T10:28:01.134Z,2.15
2022-11-25T10:29:18.891Z,1.90
2022-11-25T10:30:23.894Z,2.08
2022-11-25T10:31:29.510Z,2.47
2022-11-25T10:32:39.230Z,2.47
2022-11-25T10:33:46.469Z,2.28
2022-11-25T10:34:51.653Z,2.20
2022-11-25T10:35:58.036Z,2.35
2022-11-25T10:37:01.446Z,2.30
2022-11-25T10:38:08.004Z,1.75
2022-11-25T10:39:13.535Z,2.25
2022-11-25T10:40:17.710Z,2.13
2022-11-25T10:41:25.100Z,2.40
2022-11-25T10:42:29.027Z,2.40
2022-11-25T10:43:32.748Z,2.28
2022-11-25T10:44:36.010Z,2.47
2022-11-25T10:45:44.711Z,2.78
2022-11-25T10:47:13.599Z,2.42
2022-11-25T10:48:47.836Z,2.30
2022-11-25T10:50:01.932Z,1.95
2022-11-25T10:51:11.855Z,2.33
2022-11-25T10:52:14.335Z,1.88
2022-11-25T10:53:19.032Z,2.40
2022-11-25T10:54:27.670Z,2.00
2022-11-25T10:55:31.844Z,2.40
2022-11-25T10:56:42.824Z,2.17
2022-11-25T10:57:45.737Z,2.35
2022-11-25T10:58:48.489Z,2.08
2022-11-25T10:59:56.095Z,2.58
2022-11-25T11:01:10.713Z,2.30
2022-11-25T11:02:19.400Z,2.15
2022-11-25T11:03:25.735Z,2.17
2022-11-25T11:04:29.179Z,1.92
2022-11-25T11:05:32.427Z,2.30
2022-11-25T11:06:37.242Z,2.20
2022-11-25T11:07:41.826Z,2.20
2022-11-25T11:08:44.628Z,2.15
2022-11-25T11:09:48.856Z,2.10
2022-11-25T11:11:11.255Z,2.00
2022-11-25T11:12:16.694Z,2.25
2022-11-25T11:13:24.363Z,2.33
2022-11-25T11:14:29.891Z,2.13
2022-11-25T11:15:34.127Z,2.55
2022-11-25T11:16:37.500Z,1.77
2022-11-25T11:17:40.399Z,2.60
2022-11-25T11:18:42.127Z,2.25
2022-11-25T11:20:01.493Z,1.70
2022-11-25T11:21:06.628Z,2.17
2022-11-25T11:22:16.547Z,2.50
2022-11-25T11:23:19.478Z,2.35
2022-11-25T11:24:28.443Z,2.20
2022-11-25T11:25:34.953Z,2.60
2022-11-25T11:26:37.733Z,2.20
2022-11-25T11:27:39.537Z,2.38
2022-11-25T11:28:42.506Z,2.75
2022-11-25T11:29:45.247Z,1.95
2022-11-25T11:30:56.251Z,2.15
2022-11-25T11:32:01.008Z,2.15
2022-11-25T11:33:05.883Z,2.25
2022-11-25T11:34:34.919Z,1.80
2022-11-25T11:35:49.549Z,2.00
2022-11-25T11:37:01.218Z,2.10
2022-11-25T11:38:06.788Z,1.90
2022-11-25T11:39:29.417Z,2.20
2022-11-25T11:40:37.200Z,2.63
2022-11-25T11:41:42.248Z,2.28
2022-11-25T11:42:56.197Z,2.53
2022-11-25T11:44:07.879Z,2.13
2022-11-25T11:45:23.048Z,2.17
2022-11-25T11:46:34.087Z,1.92
2022-11-25T11:47:42.290Z,2.10
2022-11-25T11:48:53.799Z,2.47
2022-11-25T11:50:07.666Z,2.20
2022-11-25T11:51:20.205Z,2.63
2022-11-25T11:52:28.001Z,2.40
2022-11-25T11:53:32.636Z,2.38
2022-11-25T11:54:36.578Z,2.25
2022-11-25T11:56:05.663Z,2.40
2022-11-25T11:57:18.825Z,2.20
2022-11-25T11:58:30.178Z,2.35
2022-11-25T11:59:50.612Z,2.10
2022-11-25T12:01:02.419Z,2.40
2022-11-25T12:02:16.159Z,2.40
2022-11-25T12:03:19.481Z,2.20
2022-11-25T12:04:24.899Z,1.85
2022-11-25T12:05:29.758Z,2.30
2022-11-25T12:06:34.920Z,2.17
2022-11-25T12:07:41.708Z,1.80
2022-11-25T12:08:50.924Z,2.63
2022-11-25T12:09:57.447Z,2.17
2022-11-25T12:11:03.847Z,2.10
2022-11-25T12:12:07.244Z,2.47
2022-11-25T12:13:17.238Z,2.22
2022-11-25T12:14:26.355Z,2.40
2022-11-25T12:15:37.863Z,2.33
2022-11-25T12:16:44.859Z,2.13
2022-11-25T12:17:51.038Z,2.92
2022-11-25T12:18:56.413Z,2.63
2022-11-25T12:20:04.476Z,2.35
2022-11-25T12:21:09.879Z,2.20
2022-11-25T12:22:20.023Z,2.53
2022-11-25T12:23:30.395Z,2.40
2022-11-25T12:24:39.628Z,2.58
2022-11-25T12:25:43.210Z,2.20
2022-11-25T12:26:51.340Z,2.33
2022-11-25T12:27:58.952Z,2.33
2022-11-25T12:29:04.393Z,2.45
2022-11-25T12:30:08.148Z,2.30
2022-11-25T12:31:16.955Z,2.63
2022-11-25T12:32:45.979Z,2.13
2022-11-25T12:33:54.738Z,2.47
2022-11-25T12:35:00.823Z,2.47
2022-11-25T12:36:05.627Z,2.47
2022-11-25T12:37:16.003Z,2.42
2022-11-25T12:38:28.755Z,2.13
2022-11-25T12:39:36.726Z,2.35
2022-11-25T12:40:42.706Z,2.00
2022-11-25T12:41:48.897Z,2.30
2022-11-25T12:42:51.437Z,2.45
2022-11-25T12:43:57.779Z,2.80
2022-11-25T12:45:04.146Z,2.97
2022-11-25T12:46:15.515Z,2.67
2022-11-25T12:47:18.484Z,2.60
2022-11-25T12:48:21.727Z,2.78
2022-11-25T12:49:26.477Z,2.28
2022-11-25T12:50:38.241Z,2.70
2022-11-25T12:51:52.986Z,2.17
2022-11-25T12:53:03.420Z,2.20
2022-11-25T12:54:17.474Z,2.35
2022-11-25T12:55:21.411Z,2.10
2022-11-25T12:56:29.410Z,2.60
2022-11-25T12:57:54.381Z,2.22
2022-11-25T12:59:16.321Z,2.38
2022-11-25T13:01:53.466Z,2.38
2022-11-25T13:03:38.996Z,2.70
2022-11-25T13:05:38.983Z,2.65
2022-11-25T13:07:02.822Z,2.45
2022-11-25T13:08:17.001Z,2.47
2022-11-25T13:09:36.509Z,2.35
2022-11-25T13:10:47.765Z,2.80
2022-11-25T13:11:59.352Z,2.50
2022-11-25T13:13:26.156Z,2.78
2022-11-25T13:14:33.560Z,2.78
2022-11-25T13:15:39.850Z,2.53
2022-11-25T13:16:43.703Z,2.85
2022-11-25T13:17:48.908Z,2.17
2022-11-25T13:18:52.231Z,2.30
2022-11-25T13:20:28.323Z,3.00
2022-11-25T13:21:31.072Z,2.42
2022-11-25T13:22:32.877Z,3.05
2022-11-25T13:23:52.153Z,2.20
2022-11-25T13:24:55.034Z,2.35
2022-11-25T13:26:37.650Z,2.75
2022-11-25T13:27:58.486Z,2.30
2022-11-25T13:29:00.471Z,2.10
2022-11-25T13:30:03.990Z,2.45
2022-11-25T13:31:24.978Z,2.28
2022-11-25T13:32:33.493Z,2.45
2022-11-25T13:34:04.432Z,2.38
2022-11-25T13:35:48.239Z,2.70
2022-11-25T13:36:50.873Z,3.10
2022-11-25T13:37:54.115Z,2.78
2022-11-25T13:39:07.095Z,2.60
2022-11-25T13:40:33.796Z,2.83
2022-11-25T13:41:50.448Z,2.70
2022-11-25T13:42:52.804Z,2.88
2022-11-25T13:44:02.058Z,2.67
2022-11-25T13:45:05.636Z,2.50
2022-11-25T13:46:07.355Z,2.70
2022-11-25T13:47:33.189Z,3.03
2022-11-25T13:48:37.575Z,2.60
2022-11-25T13:49:50.645Z,2.97
2022-11-25T13:51:10.794Z,2.75
2022-11-25T13:52:32.141Z,2.80
2022-11-25T13:53:36.122Z,2.40
2022-11-25T13:54:47.435Z,2.58
2022-11-25T13:55:50.284Z,2.42
2022-11-25T13:57:23.025Z,3.22
2022-11-25T13:58:25.743Z,2.67
2022-11-25T13:59:39.295Z,2.50
2022-11-25T14:01:04.948Z,2.72
2022-11-25T14:02:33.377Z,2.38
2022-11-25T14:03:48.199Z,2.67
2022-11-25T14:04:54.935Z,2.63
2022-11-25T14:06:04.985Z,2.65
2022-11-25T14:07:20.108Z,2.47
2022-11-25T14:08:27.144Z,2.78
2022-11-25T14:10:02.629Z,2.60
2022-11-25T14:11:32.991Z,3.05
2022-11-25T14:13:07.802Z,2.38
2022-11-25T14:14:24.904Z,3.00
2022-11-25T14:15:33.738Z,2.50
2022-11-25T14:16:45.216Z,2.70
2022-11-25T14:18:13.207Z,2.72
2022-11-25T14:19:51.569Z,2.80
2022-11-25T14:21:00.626Z,2.47
2022-11-25T14:22:11.567Z,2.92
2022-11-25T14:23:46.799Z,2.60
2022-11-25T14:24:50.375Z,2.60
2022-11-25T14:25:54.781Z,3.10
2022-11-25T14:26:59.465Z,2.70
2022-11-25T14:28:10.024Z,3.40
2022-11-25T14:29:14.900Z,3.00
2022-11-25T14:30:17.377Z,3.17
2022-11-25T14:31:24.424Z,3.00
2022-11-25T14:32:31.816Z,3.10
2022-11-25T14:33:36.287Z,2.80
2022-11-25T14:34:41.184Z,3.25
2022-11-25T14:35:48.371Z,2.70
2022-11-25T14:36:54.891Z,2.35
2022-11-25T14:37:59.388Z,2.83
2022-11-25T14:39:06.056Z,2.85